createdAt,value
2022-09-17T00:04:41.167Z,99050.91
2022-09-17T00:09:42.787Z,99058.25
2022-09-17T00:14:44.290Z,99055.25
2022-09-17T00:19:45.681Z,99056.34
2022-09-17T00:24:47.107Z,99055.88
2022-09-17T00:29:48.877Z,99052.84
2022-09-17T00:34:52.219Z,99047.63
2022-09-17T00:39:53.643Z,99043.00
2022-09-17T00:44:57.230Z,99036.22
2022-09-17T00:50:19.944Z,99034.78
2022-09-17T00:55:31.680Z,99038.50
2022-09-17T01:00:33.188Z,99043.19
2022-09-17T01:05:45.889Z,99050.88
2022-09-17T01:11:10.852Z,99045.78
2022-09-17T01:16:41.218Z,99042.81
2022-09-17T01:22:10.152Z,99044.31
2022-09-17T01:27:20.472Z,99034.00
2022-09-17T01:32:45.643Z,99039.47
2022-09-17T01:38:24.140Z,99030.50
2022-09-17T01:43:55.692Z,99037.91
2022-09-17T01:49:01.480Z,99034.56
2022-09-17T01:54:11.288Z,99035.41
2022-09-17T01:59:24.893Z,99029.16
2022-09-17T02:04:31.609Z,99033.09
2022-09-17T02:09:39.640Z,99030.63
2022-09-17T02:14:50.522Z,99030.94
2022-09-17T02:19:53.704Z,99039.88
2022-09-17T02:25:08.418Z,99024.88
2022-09-17T02:30:10.316Z,99034.25
2022-09-17T02:35:13.932Z,99029.41
2022-09-17T02:40:18.205Z,99031.50
2022-09-17T02:45:26.397Z,99024.91
2022-09-17T02:50:50.187Z,99011.25
2022-09-17T02:56:14.169Z,99009.31
2022-09-17T03:01:25.529Z,99007.81
2022-09-17T03:06:27.406Z,99014.69
2022-09-17T03:11:28.937Z,99011.94
2022-09-17T03:16:30.477Z,99015.16
2022-09-17T03:21:31.960Z,99014.56
2022-09-17T03:26:33.396Z,99013.53
2022-09-17T03:31:34.853Z,99017.72
2022-09-17T03:36:36.340Z,99018.44
2022-09-17T03:41:37.938Z,99028.00
2022-09-17T03:46:39.453Z,99014.09
2022-09-17T03:51:41.188Z,99012.25
2022-09-17T03:56:42.632Z,99010.63
2022-09-17T04:01:44.147Z,99004.97
2022-09-17T04:06:45.639Z,99004.22
2022-09-17T04:11:47.047Z,99012.00
2022-09-17T04:16:48.482Z,99002.88
2022-09-17T04:21:49.880Z,99002.22
2022-09-17T04:26:51.329Z,98997.13
2022-09-17T04:31:53.100Z,99000.66
2022-09-17T04:36:54.490Z,98997.94
2022-09-17T04:41:55.982Z,99009.53
2022-09-17T04:46:57.455Z,99007.41
2022-09-17T04:51:58.916Z,99008.03
2022-09-17T04:57:00.749Z,99014.94
2022-09-17T05:02:02.239Z,99017.81
2022-09-17T05:07:03.838Z,99020.53
2022-09-17T05:12:05.366Z,99023.00
2022-09-17T05:17:06.759Z,99014.41
2022-09-17T05:22:08.168Z,99010.59
2022-09-17T05:27:09.594Z,99003.81
2022-09-17T05:32:11.005Z,99013.03
2022-09-17T05:37:12.678Z,99016.78
2022-09-17T05:42:14.073Z,99011.75
2022-09-17T05:47:15.499Z,99006.03
2022-09-17T05:52:16.894Z,99009.16
2022-09-17T05:57:18.348Z,99009.63
2022-09-17T06:02:19.820Z,99004.47
2022-09-17T06:07:21.283Z,99006.09
2022-09-17T06:12:23.461Z,99016.41
2022-09-17T06:17:24.853Z,99027.97
2022-09-17T06:22:26.362Z,99020.00
2022-09-17T06:27:36.680Z,99028.53
2022-09-17T06:32:38.109Z,99033.38
2022-09-17T06:37:40.853Z,99044.91
2022-09-17T06:42:42.557Z,99052.03
2022-09-17T06:47:44.010Z,99050.00
2022-09-17T06:52:53.587Z,99057.66
2022-09-17T06:57:59.166Z,99054.41
2022-09-17T07:03:01.207Z,99054.00
2022-09-17T07:08:03.349Z,99057.69
2022-09-17T07:13:04.900Z,99062.28
2022-09-17T07:18:11.538Z,99060.88
2022-09-17T07:23:12.935Z,99066.63
2022-09-17T07:28:14.380Z,99061.88
2022-09-17T07:33:16.782Z,99064.25
2022-09-17T07:38:18.245Z,99073.97
2022-09-17T07:43:20.068Z,99092.28
2022-09-17T07:48:21.617Z,99108.69
2022-09-17T07:53:23.100Z,99108.03
2022-09-17T07:58:30.066Z,99098.06
2022-09-17T08:03:31.499Z,99116.88
2022-09-17T08:08:34.142Z,99091.28
2022-09-17T08:13:36.506Z,99102.34
2022-09-17T08:18:37.932Z,99095.19
2022-09-17T08:23:41.461Z,99094.19
2022-09-17T08:28:48.036Z,99097.25
2022-09-17T08:33:49.668Z,99094.53
2022-09-17T08:38:54.186Z,99111.81
2022-09-17T08:44:07.771Z,99099.63
2022-09-17T08:49:35.810Z,99081.13
2022-09-17T08:55:21.839Z,99073.84
2022-09-17T09:00:24.492Z,99091.16
2022-09-17T09:05:42.826Z,99079.94
2022-09-17T09:10:54.129Z,99083.16
2022-09-17T09:16:01.055Z,99081.84
2022-09-17T09:21:26.908Z,99097.59
2022-09-17T09:26:50.321Z,99116.09
2022-09-17T09:32:27.543Z,99142.56
2022-09-17T09:37:35.363Z,99152.25
2022-09-17T09:42:39.708Z,99164.13
2022-09-17T09:48:00.918Z,99154.25
2022-09-17T09:53:19.152Z,99154.25
2022-09-17T09:58:31.071Z,99148.84
2022-09-17T10:03:36.203Z,99167.53
2022-09-17T10:08:40.244Z,99152.94
2022-09-17T10:13:41.693Z,99171.88
2022-09-17T10:18:43.716Z,99174.66
2022-09-17T10:23:45.951Z,99158.53
2022-09-17T10:29:00.435Z,99146.97
2022-09-17T10:34:02.673Z,99159.69
2022-09-17T10:39:26.056Z,99155.97
2022-09-17T10:44:33.707Z,99165.81
2022-09-17T10:50:06.404Z,99155.31
2022-09-17T10:55:43.993Z,99152.06
2022-09-17T11:00:57.229Z,99155.31
2022-09-17T11:06:01.461Z,99150.16
2022-09-17T11:11:11.243Z,99132.19
2022-09-17T11:16:31.456Z,99120.81
2022-09-17T11:21:41.773Z,99135.25
2022-09-17T11:26:48.737Z,99134.75
2022-09-17T11:32:02.213Z,99121.03
2022-09-17T11:37:18.406Z,99103.63
2022-09-17T11:42:24.805Z,99106.28
2022-09-17T11:47:33.657Z,99100.09
2022-09-17T11:52:38.199Z,99102.56
2022-09-17T11:57:42.358Z,99105.97
2022-09-17T12:02:52.682Z,99106.00
2022-09-17T12:08:19.637Z,99090.59
2022-09-17T12:13:30.009Z,99086.53
2022-09-17T12:18:43.341Z,99073.03
2022-09-17T12:23:52.052Z,99070.31
2022-09-17T12:29:30.860Z,99072.25
2022-09-17T12:34:53.518Z,99085.31
2022-09-17T12:40:15.244Z,99080.00
2022-09-17T12:45:25.567Z,99072.38
2022-09-17T12:50:50.285Z,99059.38
2022-09-17T12:56:03.571Z,99053.50
2022-09-17T13:01:31.330Z,99028.94
2022-09-17T13:06:42.616Z,99032.56
2022-09-17T13:12:03.364Z,99019.38
2022-09-17T13:17:14.337Z,99024.09
2022-09-17T13:22:27.697Z,99018.72
2022-09-17T13:27:29.481Z,99023.63
2022-09-17T13:32:33.853Z,99027.88
2022-09-17T13:37:58.516Z,99038.41
2022-09-17T13:43:02.684Z,99035.41
2022-09-17T13:48:11.839Z,99033.78
2022-09-17T13:53:16.053Z,99034.66
2022-09-17T13:58:23.308Z,99024.44
2022-09-17T14:03:46.405Z,99022.00
2022-09-17T14:08:55.487Z,99022.69
2022-09-17T14:13:59.997Z,99029.66
2022-09-17T14:19:03.189Z,99014.78
2022-09-17T14:24:44.844Z,99008.97
2022-09-17T14:29:48.715Z,99011.00
2022-09-17T14:34:50.350Z,99000.28
2022-09-17T14:39:52.503Z,99002.09
2022-09-17T14:45:03.715Z,99012.75
2022-09-17T14:50:21.558Z,99012.38
2022-09-17T14:55:31.102Z,99010.03
2022-09-17T15:00:38.200Z,99014.38
2022-09-17T15:05:41.016Z,99025.38
2022-09-17T15:10:58.310Z,99025.19
2022-09-17T15:16:04.933Z,99027.63
2022-09-17T15:21:32.480Z,99046.22
2022-09-17T15:26:40.789Z,99035.75
2022-09-17T15:31:42.332Z,99019.50
2022-09-17T15:37:03.861Z,99025.56
2022-09-17T15:42:05.408Z,99035.81
2022-09-17T15:47:44.652Z,99053.81
2022-09-17T15:52:47.440Z,99057.84
2022-09-17T15:57:48.891Z,99068.78
2022-09-17T16:02:50.519Z,99077.00
2022-09-17T16:07:52.155Z,99085.91
2022-09-17T16:12:53.641Z,99097.00
2022-09-17T16:17:55.988Z,99086.69
2022-09-17T16:22:57.407Z,99086.22
2022-09-17T16:28:12.506Z,99088.59
2022-09-17T16:33:16.202Z,99071.47
2022-09-17T16:38:17.640Z,99074.69
2022-09-17T16:43:19.339Z,99081.81
2022-09-17T16:48:20.790Z,99099.31
2022-09-17T16:53:22.199Z,99116.75
2022-09-17T16:58:23.847Z,99124.94
2022-09-17T17:03:25.570Z,99104.84
2022-09-17T17:08:27.130Z,99123.63
2022-09-17T17:13:29.690Z,99121.59
2022-09-17T17:18:31.506Z,99123.56
2022-09-17T17:23:34.728Z,99133.66
2022-09-17T17:28:36.698Z,99127.72
2022-09-17T17:33:38.181Z,99127.34
2022-09-17T17:38:40.752Z,99129.81
2022-09-17T17:43:42.299Z,99129.53
2022-09-17T17:48:43.883Z,99137.09
2022-09-17T17:53:46.150Z,99129.38
2022-09-17T17:58:47.986Z,99139.16
2022-09-17T18:03:49.761Z,99135.72
2022-09-17T18:08:51.173Z,99136.84
2022-09-17T18:13:55.237Z,99133.50
2022-09-17T18:18:58.258Z,99135.41
2022-09-17T18:23:59.744Z,99127.00
2022-09-17T18:29:07.052Z,99130.94
2022-09-17T18:34:12.209Z,99136.53
2022-09-17T18:44:36.952Z,99128.41
2022-09-17T18:49:38.396Z,99135.47
2022-09-17T18:54:39.791Z,99142.84
2022-09-17T18:59:41.476Z,99142.63
2022-09-17T19:04:42.894Z,99149.09
2022-09-17T19:09:44.370Z,99151.97
2022-09-17T19:14:45.768Z,99152.31
2022-09-17T19:19:47.238Z,99150.63
2022-09-17T19:24:48.635Z,99149.69
2022-09-17T19:29:50.296Z,99151.88
2022-09-17T19:34:51.724Z,99155.78
2022-09-17T19:39:53.168Z,99148.88
2022-09-17T19:44:54.626Z,99148.66
2022-09-17T19:49:56.219Z,99143.28
2022-09-17T19:54:57.666Z,99141.72
2022-09-17T19:59:59.055Z,99147.44
2022-09-17T20:05:00.502Z,99150.06
2022-09-17T20:10:01.926Z,99146.41
2022-09-17T20:15:03.721Z,99144.28
2022-09-17T20:20:06.529Z,99138.53
2022-09-17T20:25:08.437Z,99148.63
2022-09-17T20:30:10.743Z,99157.06
2022-09-17T20:35:12.275Z,99154.63
2022-09-17T20:40:15.832Z,99153.84
2022-09-17T20:45:17.382Z,99152.03
2022-09-17T20:50:18.820Z,99157.75
2022-09-17T20:55:21.511Z,99156.72
2022-09-17T21:00:25.928Z,99160.81
2022-09-17T21:05:27.352Z,99161.03
2022-09-17T21:10:28.748Z,99163.91
2022-09-17T21:15:30.193Z,99152.53
2022-09-17T21:20:35.882Z,99156.53
2022-09-17T21:25:37.278Z,99148.13
2022-09-17T21:30:38.677Z,99151.94
2022-09-17T21:35:40.262Z,99155.53
2022-09-17T21:40:44.020Z,99151.44
2022-09-17T21:45:45.649Z,99155.75
2022-09-17T21:50:47.049Z,99152.28
2022-09-17T21:55:48.519Z,99148.13
2022-09-17T22:00:52.801Z,99156.94
2022-09-17T22:05:54.227Z,99158.41
2022-09-17T22:11:07.223Z,99158.97
2022-09-17T22:16:10.173Z,99163.88
2022-09-17T22:21:26.712Z,99148.06
2022-09-17T22:26:31.652Z,99144.78
2022-09-17T22:31:33.506Z,99149.59
2022-09-17T22:36:35.080Z,99151.47
2022-09-17T22:41:42.835Z,99150.91
2022-09-17T22:46:46.473Z,99145.34
2022-09-17T22:51:48.477Z,99149.31
2022-09-17T22:56:49.946Z,99145.81
2022-09-17T23:01:51.381Z,99140.00
2022-09-17T23:06:52.890Z,99136.28
2022-09-17T23:11:54.299Z,99145.50
2022-09-17T23:16:55.794Z,99134.06
2022-09-17T23:21:57.193Z,99135.72
2022-09-17T23:26:58.645Z,99125.66
2022-09-17T23:32:00.078Z,99119.53
2022-09-17T23:37:01.535Z,99128.06
2022-09-17T23:42:03.066Z,99121.78
2022-09-17T23:47:04.637Z,99124.78
2022-09-17T23:52:06.052Z,99118.66
2022-09-17T23:57:07.448Z,99111.28
